sensor_id;sensor_type;location;lat;lon;timestamp;P1;durP1;ratioP1;P2;durP2;ratioP2
4122;SDS011;2075;51.062;6.920;2022-12-07T00:00:02;30.43;;;17.00;;
4122;SDS011;2075;51.062;6.920;2022-12-07T00:02:51;29.47;;;16.63;;
4122;SDS011;2075;51.062;6.920;2022-12-07T00:05:36;32.53;;;17.47;;
4122;SDS011;2075;51.062;6.920;2022-12-07T00:08:22;25.90;;;15.63;;
4122;SDS011;2075;51.062;6.920;2022-12-07T00:11:09;29.63;;;17.30;;
4122;SDS011;2075;51.062;6.920;2022-12-07T00:13:58;38.57;;;18.73;;
4122;SDS011;2075;51.062;6.920;2022-12-07T00:16:46;32.50;;;17.33;;
4122;SDS011;2075;51.062;6.920;2022-12-07T00:19:34;26.97;;;16.57;;
4122;SDS011;2075;51.062;6.920;2022-12-07T00:22:20;31.37;;;16.43;;
4122;SDS011;2075;51.062;6.920;2022-12-07T00:25:05;29.80;;;16.90;;
4122;SDS011;2075;51.062;6.920;2022-12-07T00:27:53;31.73;;;16.97;;
4122;SDS011;2075;51.062;6.920;2022-12-07T00:30:39;27.53;;;17.00;;
4122;SDS011;2075;51.062;6.920;2022-12-07T00:33:25;36.00;;;18.70;;
4122;SDS011;2075;51.062;6.920;2022-12-07T00:36:13;30.60;;;17.13;;
4122;SDS011;2075;51.062;6.920;2022-12-07T00:39:00;33.87;;;18.70;;
4122;SDS011;2075;51.062;6.920;2022-12-07T00:41:46;43.10;;;22.60;;
4122;SDS011;2075;51.062;6.920;2022-12-07T00:44:32;37.00;;;21.40;;
4122;SDS011;2075;51.062;6.920;2022-12-07T00:47:18;36.57;;;20.07;;
4122;SDS011;2075;51.062;6.920;2022-12-07T00:50:04;30.20;;;18.30;;
4122;SDS011;2075;51.062;6.920;2022-12-07T00:52:52;26.80;;;15.73;;
4122;SDS011;2075;51.062;6.920;2022-12-07T00:55:37;31.50;;;15.53;;
4122;SDS011;2075;51.062;6.920;2022-12-07T00:58:24;32.83;;;17.33;;
4122;SDS011;2075;51.062;6.920;2022-12-07T01:01:11;30.83;;;17.27;;
4122;SDS011;2075;51.062;6.920;2022-12-07T01:03:57;29.17;;;15.87;;
4122;SDS011;2075;51.062;6.920;2022-12-07T01:06:44;30.90;;;18.17;;
4122;SDS011;2075;51.062;6.920;2022-12-07T01:09:30;25.77;;;16.03;;
4122;SDS011;2075;51.062;6.920;2022-12-07T01:12:15;32.30;;;18.30;;
4122;SDS011;2075;51.062;6.920;2022-12-07T01:15:00;32.47;;;18.07;;
4122;SDS011;2075;51.062;6.920;2022-12-07T01:17:47;38.17;;;18.87;;
4122;SDS011;2075;51.062;6.920;2022-12-07T01:20:32;30.87;;;18.60;;
4122;SDS011;2075;51.062;6.920;2022-12-07T01:23:20;30.83;;;17.30;;
4122;SDS011;2075;51.062;6.920;2022-12-07T01:26:06;34.20;;;19.50;;
4122;SDS011;2075;51.062;6.920;2022-12-07T01:28:52;35.53;;;19.57;;
4122;SDS011;2075;51.062;6.920;2022-12-07T01:31:41;30.80;;;18.43;;
4122;SDS011;2075;51.062;6.920;2022-12-07T01:34:28;29.40;;;17.33;;
4122;SDS011;2075;51.062;6.920;2022-12-07T01:37:13;34.70;;;19.50;;
4122;SDS011;2075;51.062;6.920;2022-12-07T01:39:58;38.57;;;19.87;;
4122;SDS011;2075;51.062;6.920;2022-12-07T01:42:46;34.83;;;20.03;;
4122;SDS011;2075;51.062;6.920;2022-12-07T01:45:37;33.00;;;19.17;;
4122;SDS011;2075;51.062;6.920;2022-12-07T01:48:25;36.03;;;21.47;;
4122;SDS011;2075;51.062;6.920;2022-12-07T01:51:14;36.67;;;21.50;;
4122;SDS011;2075;51.062;6.920;2022-12-07T01:54:00;36.30;;;19.07;;
4122;SDS011;2075;51.062;6.920;2022-12-07T01:56:47;34.93;;;20.40;;
4122;SDS011;2075;51.062;6.920;2022-12-07T01:59:36;34.50;;;19.10;;
4122;SDS011;2075;51.062;6.920;2022-12-07T02:02:24;32.57;;;18.60;;
4122;SDS011;2075;51.062;6.920;2022-12-07T02:05:12;37.67;;;18.87;;
4122;SDS011;2075;51.062;6.920;2022-12-07T02:08:07;31.27;;;17.53;;
4122;SDS011;2075;51.062;6.920;2022-12-07T02:10:53;34.90;;;18.57;;
4122;SDS011;2075;51.062;6.920;2022-12-07T02:13:42;31.43;;;17.80;;
4122;SDS011;2075;51.062;6.920;2022-12-07T02:16:31;35.73;;;18.20;;
4122;SDS011;2075;51.062;6.920;2022-12-07T02:19:29;35.50;;;18.67;;
4122;SDS011;2075;51.062;6.920;2022-12-07T02:22:51;38.00;;;18.37;;
4122;SDS011;2075;51.062;6.920;2022-12-07T02:25:57;37.00;;;19.00;;
4122;SDS011;2075;51.062;6.920;2022-12-07T02:28:59;30.93;;;18.17;;
4122;SDS011;2075;51.062;6.920;2022-12-07T02:31:56;39.47;;;20.80;;
4122;SDS011;2075;51.062;6.920;2022-12-07T02:34:49;35.50;;;20.23;;
4122;SDS011;2075;51.062;6.920;2022-12-07T02:37:39;35.77;;;18.90;;
4122;SDS011;2075;51.062;6.920;2022-12-07T02:40:33;31.97;;;18.37;;
4122;SDS011;2075;51.062;6.920;2022-12-07T02:43:23;36.87;;;17.93;;
4122;SDS011;2075;51.062;6.920;2022-12-07T02:46:13;36.57;;;19.80;;
4122;SDS011;2075;51.062;6.920;2022-12-07T02:49:01;36.67;;;18.97;;
4122;SDS011;2075;51.062;6.920;2022-12-07T02:51:48;35.77;;;19.10;;
4122;SDS011;2075;51.062;6.920;2022-12-07T02:54:33;33.83;;;18.67;;
4122;SDS011;2075;51.062;6.920;2022-12-07T02:57:22;33.70;;;19.40;;
4122;SDS011;2075;51.062;6.920;2022-12-07T03:00:24;34.63;;;18.27;;
4122;SDS011;2075;51.062;6.920;2022-12-07T03:03:12;34.70;;;19.10;;
4122;SDS011;2075;51.062;6.920;2022-12-07T03:06:07;40.00;;;18.93;;
4122;SDS011;2075;51.062;6.920;2022-12-07T03:09:01;38.27;;;18.90;;
4122;SDS011;2075;51.062;6.920;2022-12-07T03:12:00;37.10;;;20.03;;
4122;SDS011;2075;51.062;6.920;2022-12-07T03:14:53;36.30;;;20.67;;
4122;SDS011;2075;51.062;6.920;2022-12-07T03:17:42;34.20;;;18.73;;
4122;SDS011;2075;51.062;6.920;2022-12-07T03:20:32;35.23;;;20.10;;
4122;SDS011;2075;51.062;6.920;2022-12-07T03:23:20;36.40;;;20.17;;
4122;SDS011;2075;51.062;6.920;2022-12-07T03:26:10;36.50;;;18.60;;
4122;SDS011;2075;51.062;6.920;2022-12-07T03:28:59;35.63;;;19.90;;
4122;SDS011;2075;51.062;6.920;2022-12-07T03:31:51;28.97;;;18.17;;
4122;SDS011;2075;51.062;6.920;2022-12-07T03:34:44;34.07;;;20.27;;
4122;SDS011;2075;51.062;6.920;2022-12-07T03:37:36;45.80;;;20.43;;
4122;SDS011;2075;51.062;6.920;2022-12-07T03:40:26;35.77;;;21.10;;
4122;SDS011;2075;51.062;6.920;2022-12-07T03:43:15;35.60;;;20.13;;
4122;SDS011;2075;51.062;6.920;2022-12-07T03:46:06;39.03;;;20.07;;
4122;SDS011;2075;51.062;6.920;2022-12-07T03:49:04;35.07;;;19.40;;
4122;SDS011;2075;51.062;6.920;2022-12-07T03:51:55;39.20;;;21.97;;
4122;SDS011;2075;51.062;6.920;2022-12-07T03:54:49;45.30;;;20.50;;
4122;SDS011;2075;51.062;6.920;2022-12-07T03:57:40;40.27;;;18.40;;
4122;SDS011;2075;51.062;6.920;2022-12-07T04:00:27;38.10;;;21.10;;
4122;SDS011;2075;51.062;6.920;2022-12-07T04:03:13;39.90;;;22.80;;
4122;SDS011;2075;51.062;6.920;2022-12-07T04:05:59;40.80;;;20.80;;
4122;SDS011;2075;51.062;6.920;2022-12-07T04:08:44;42.07;;;21.30;;
4122;SDS011;2075;51.062;6.920;2022-12-07T04:11:31;44.37;;;20.53;;
4122;SDS011;2075;51.062;6.920;2022-12-07T04:14:16;40.70;;;21.33;;
4122;SDS011;2075;51.062;6.920;2022-12-07T04:17:04;44.40;;;22.13;;
4122;SDS011;2075;51.062;6.920;2022-12-07T04:19:49;36.83;;;20.17;;
4122;SDS011;2075;51.062;6.920;2022-12-07T04:22:35;38.03;;;20.43;;
4122;SDS011;2075;51.062;6.920;2022-12-07T04:25:20;38.83;;;20.70;;
4122;SDS011;2075;51.062;6.920;2022-12-07T04:28:07;35.37;;;19.43;;
4122;SDS011;2075;51.062;6.920;2022-12-07T04:30:52;37.20;;;20.33;;
4122;SDS011;2075;51.062;6.920;2022-12-07T04:33:37;39.77;;;20.53;;
4122;SDS011;2075;51.062;6.920;2022-12-07T04:36:23;42.83;;;20.40;;
4122;SDS011;2075;51.062;6.920;2022-12-07T04:39:09;40.33;;;19.73;;
4122;SDS011;2075;51.062;6.920;2022-12-07T04:42:03;40.30;;;20.30;;
4122;SDS011;2075;51.062;6.920;2022-12-07T04:44:50;40.37;;;21.90;;
4122;SDS011;2075;51.062;6.920;2022-12-07T04:47:35;46.60;;;22.53;;
4122;SDS011;2075;51.062;6.920;2022-12-07T04:50:21;40.83;;;21.63;;
4122;SDS011;2075;51.062;6.920;2022-12-07T04:53:06;32.70;;;20.10;;
4122;SDS011;2075;51.062;6.920;2022-12-07T04:55:52;38.97;;;20.90;;
4122;SDS011;2075;51.062;6.920;2022-12-07T04:58:37;38.07;;;20.97;;
4122;SDS011;2075;51.062;6.920;2022-12-07T05:01:24;37.77;;;20.63;;
4122;SDS011;2075;51.062;6.920;2022-12-07T05:04:10;42.93;;;22.67;;
4122;SDS011;2075;51.062;6.920;2022-12-07T05:06:55;41.50;;;21.63;;
4122;SDS011;2075;51.062;6.920;2022-12-07T05:09:41;36.20;;;20.27;;
4122;SDS011;2075;51.062;6.920;2022-12-07T05:12:26;37.47;;;19.67;;
4122;SDS011;2075;51.062;6.920;2022-12-07T05:15:11;39.20;;;21.27;;
4122;SDS011;2075;51.062;6.920;2022-12-07T05:18:00;40.67;;;19.57;;
4122;SDS011;2075;51.062;6.920;2022-12-07T05:20:47;32.57;;;18.90;;
4122;SDS011;2075;51.062;6.920;2022-12-07T05:23:32;32.23;;;18.17;;
4122;SDS011;2075;51.062;6.920;2022-12-07T05:26:20;33.80;;;18.10;;
4122;SDS011;2075;51.062;6.920;2022-12-07T05:29:05;36.63;;;19.50;;
4122;SDS011;2075;51.062;6.920;2022-12-07T05:31:50;34.30;;;17.70;;
4122;SDS011;2075;51.062;6.920;2022-12-07T05:34:37;39.90;;;19.57;;
4122;SDS011;2075;51.062;6.920;2022-12-07T05:37:22;36.93;;;18.73;;
4122;SDS011;2075;51.062;6.920;2022-12-07T05:40:10;30.80;;;18.13;;
4122;SDS011;2075;51.062;6.920;2022-12-07T05:42:56;30.10;;;17.27;;
4122;SDS011;2075;51.062;6.920;2022-12-07T05:45:41;32.83;;;19.23;;
4122;SDS011;2075;51.062;6.920;2022-12-07T05:48:27;34.30;;;19.03;;
4122;SDS011;2075;51.062;6.920;2022-12-07T05:51:13;35.37;;;18.47;;
4122;SDS011;2075;51.062;6.920;2022-12-07T05:54:02;38.20;;;17.80;;
4122;SDS011;2075;51.062;6.920;2022-12-07T05:56:47;38.33;;;18.37;;
4122;SDS011;2075;51.062;6.920;2022-12-07T05:59:35;35.30;;;18.73;;
4122;SDS011;2075;51.062;6.920;2022-12-07T06:02:19;36.70;;;18.93;;
4122;SDS011;2075;51.062;6.920;2022-12-07T06:05:05;34.37;;;17.97;;
4122;SDS011;2075;51.062;6.920;2022-12-07T06:07:52;33.30;;;18.60;;
4122;SDS011;2075;51.062;6.920;2022-12-07T06:10:38;34.37;;;17.87;;
4122;SDS011;2075;51.062;6.920;2022-12-07T06:13:23;29.20;;;16.70;;
4122;SDS011;2075;51.062;6.920;2022-12-07T06:16:08;28.27;;;16.70;;
4122;SDS011;2075;51.062;6.920;2022-12-07T06:18:53;35.37;;;18.03;;
4122;SDS011;2075;51.062;6.920;2022-12-07T06:21:38;32.10;;;17.43;;
4122;SDS011;2075;51.062;6.920;2022-12-07T06:24:28;32.90;;;17.77;;
4122;SDS011;2075;51.062;6.920;2022-12-07T06:27:13;35.70;;;18.60;;
4122;SDS011;2075;51.062;6.920;2022-12-07T06:29:59;32.53;;;17.57;;
4122;SDS011;2075;51.062;6.920;2022-12-07T06:32:50;33.50;;;17.70;;
4122;SDS011;2075;51.062;6.920;2022-12-07T06:35:35;32.57;;;17.90;;
4122;SDS011;2075;51.062;6.920;2022-12-07T06:38:20;31.30;;;17.40;;
4122;SDS011;2075;51.062;6.920;2022-12-07T06:41:07;43.40;;;18.40;;
4122;SDS011;2075;51.062;6.920;2022-12-07T06:43:55;32.73;;;19.10;;
4122;SDS011;2075;51.062;6.920;2022-12-07T06:46:40;31.60;;;18.00;;
4122;SDS011;2075;51.062;6.920;2022-12-07T06:49:26;31.80;;;17.00;;
4122;SDS011;2075;51.062;6.920;2022-12-07T06:52:11;33.53;;;18.90;;
4122;SDS011;2075;51.062;6.920;2022-12-07T06:54:56;31.37;;;18.40;;
4122;SDS011;2075;51.062;6.920;2022-12-07T06:57:45;28.33;;;16.80;;
4122;SDS011;2075;51.062;6.920;2022-12-07T07:00:30;34.67;;;16.67;;
4122;SDS011;2075;51.062;6.920;2022-12-07T07:03:16;32.57;;;17.70;;
4122;SDS011;2075;51.062;6.920;2022-12-07T07:06:05;30.43;;;17.33;;
4122;SDS011;2075;51.062;6.920;2022-12-07T07:08:51;32.50;;;17.30;;
4122;SDS011;2075;51.062;6.920;2022-12-07T07:11:40;26.77;;;15.47;;
4122;SDS011;2075;51.062;6.920;2022-12-07T07:14:26;28.70;;;14.50;;
4122;SDS011;2075;51.062;6.920;2022-12-07T07:17:12;30.33;;;15.50;;
4122;SDS011;2075;51.062;6.920;2022-12-07T07:19:58;30.83;;;15.77;;
4122;SDS011;2075;51.062;6.920;2022-12-07T07:22:44;27.60;;;16.20;;
4122;SDS011;2075;51.062;6.920;2022-12-07T07:25:29;29.37;;;15.03;;
4122;SDS011;2075;51.062;6.920;2022-12-07T07:28:15;23.83;;;14.40;;
4122;SDS011;2075;51.062;6.920;2022-12-07T07:31:03;26.20;;;16.20;;
4122;SDS011;2075;51.062;6.920;2022-12-07T07:33:51;30.77;;;18.27;;
4122;SDS011;2075;51.062;6.920;2022-12-07T07:36:40;28.93;;;17.43;;
4122;SDS011;2075;51.062;6.920;2022-12-07T07:39:26;25.53;;;14.60;;
4122;SDS011;2075;51.062;6.920;2022-12-07T07:42:12;28.57;;;14.87;;
4122;SDS011;2075;51.062;6.920;2022-12-07T07:45:05;26.90;;;15.83;;
4122;SDS011;2075;51.062;6.920;2022-12-07T07:47:56;26.73;;;14.50;;
4122;SDS011;2075;51.062;6.920;2022-12-07T07:50:41;31.23;;;14.20;;
4122;SDS011;2075;51.062;6.920;2022-12-07T07:53:27;29.13;;;15.37;;
4122;SDS011;2075;51.062;6.920;2022-12-07T07:56:15;25.10;;;12.97;;
4122;SDS011;2075;51.062;6.920;2022-12-07T07:59:03;29.27;;;14.70;;
4122;SDS011;2075;51.062;6.920;2022-12-07T08:01:51;24.53;;;14.37;;
4122;SDS011;2075;51.062;6.920;2022-12-07T08:04:38;24.30;;;13.97;;
4122;SDS011;2075;51.062;6.920;2022-12-07T08:07:24;26.30;;;13.60;;
4122;SDS011;2075;51.062;6.920;2022-12-07T08:10:11;24.23;;;14.80;;
4122;SDS011;2075;51.062;6.920;2022-12-07T08:12:58;21.23;;;11.93;;
4122;SDS011;2075;51.062;6.920;2022-12-07T08:15:56;26.47;;;14.80;;
4122;SDS011;2075;51.062;6.920;2022-12-07T08:18:42;29.13;;;15.27;;
4122;SDS011;2075;51.062;6.920;2022-12-07T08:21:29;26.10;;;15.93;;
4122;SDS011;2075;51.062;6.920;2022-12-07T08:24:14;24.10;;;14.67;;
4122;SDS011;2075;51.062;6.920;2022-12-07T08:27:00;25.87;;;14.50;;
4122;SDS011;2075;51.062;6.920;2022-12-07T08:29:45;22.30;;;14.40;;
4122;SDS011;2075;51.062;6.920;2022-12-07T08:32:31;23.70;;;12.93;;
4122;SDS011;2075;51.062;6.920;2022-12-07T08:35:21;19.00;;;11.50;;
4122;SDS011;2075;51.062;6.920;2022-12-07T08:38:14;22.63;;;12.00;;
4122;SDS011;2075;51.062;6.920;2022-12-07T08:41:00;20.30;;;11.80;;
4122;SDS011;2075;51.062;6.920;2022-12-07T08:43:45;20.47;;;11.70;;
4122;SDS011;2075;51.062;6.920;2022-12-07T08:46:32;21.57;;;11.80;;
4122;SDS011;2075;51.062;6.920;2022-12-07T08:49:23;21.50;;;12.33;;
4122;SDS011;2075;51.062;6.920;2022-12-07T08:52:16;23.80;;;12.50;;
4122;SDS011;2075;51.062;6.920;2022-12-07T08:55:04;22.00;;;13.30;;
4122;SDS011;2075;51.062;6.920;2022-12-07T08:57:50;20.47;;;12.53;;
4122;SDS011;2075;51.062;6.920;2022-12-07T09:00:36;22.53;;;11.67;;
4122;SDS011;2075;51.062;6.920;2022-12-07T09:03:21;25.20;;;12.30;;
4122;SDS011;2075;51.062;6.920;2022-12-07T09:06:07;23.60;;;12.17;;
4122;SDS011;2075;51.062;6.920;2022-12-07T09:08:53;21.00;;;12.33;;
4122;SDS011;2075;51.062;6.920;2022-12-07T09:11:44;21.30;;;11.77;;
4122;SDS011;2075;51.062;6.920;2022-12-07T09:14:29;22.70;;;11.87;;
4122;SDS011;2075;51.062;6.920;2022-12-07T09:17:15;19.47;;;12.60;;
4122;SDS011;2075;51.062;6.920;2022-12-07T09:20:01;21.30;;;11.60;;
4122;SDS011;2075;51.062;6.920;2022-12-07T09:22:47;24.53;;;13.43;;
4122;SDS011;2075;51.062;6.920;2022-12-07T09:25:32;20.67;;;12.17;;
4122;SDS011;2075;51.062;6.920;2022-12-07T09:28:22;18.87;;;12.10;;
4122;SDS011;2075;51.062;6.920;2022-12-07T09:31:11;21.87;;;13.87;;
4122;SDS011;2075;51.062;6.920;2022-12-07T09:33:58;19.33;;;12.50;;
4122;SDS011;2075;51.062;6.920;2022-12-07T09:36:45;26.33;;;13.73;;
4122;SDS011;2075;51.062;6.920;2022-12-07T09:39:31;22.50;;;12.83;;
4122;SDS011;2075;51.062;6.920;2022-12-07T09:42:23;25.77;;;14.07;;
4122;SDS011;2075;51.062;6.920;2022-12-07T09:45:16;29.23;;;15.80;;
4122;SDS011;2075;51.062;6.920;2022-12-07T09:48:08;23.80;;;14.90;;
4122;SDS011;2075;51.062;6.920;2022-12-07T09:51:02;26.70;;;13.63;;
4122;SDS011;2075;51.062;6.920;2022-12-07T09:53:59;20.07;;;11.77;;
4122;SDS011;2075;51.062;6.920;2022-12-07T09:56:48;29.70;;;17.63;;
4122;SDS011;2075;51.062;6.920;2022-12-07T09:59:33;23.20;;;10.87;;
4122;SDS011;2075;51.062;6.920;2022-12-07T10:02:23;21.05;;;11.80;;
4122;SDS011;2075;51.062;6.920;2022-12-07T10:05:18;17.30;;;11.60;;
4122;SDS011;2075;51.062;6.920;2022-12-07T10:08:07;21.88;;;12.95;;
4122;SDS011;2075;51.062;6.920;2022-12-07T10:10:56;13.87;;;10.10;;
4122;SDS011;2075;51.062;6.920;2022-12-07T10:13:42;16.80;;;9.87;;
4122;SDS011;2075;51.062;6.920;2022-12-07T10:16:38;17.27;;;10.80;;
4122;SDS011;2075;51.062;6.920;2022-12-07T10:19:27;22.13;;;11.40;;
4122;SDS011;2075;51.062;6.920;2022-12-07T10:22:14;16.60;;;10.03;;
4122;SDS011;2075;51.062;6.920;2022-12-07T10:25:07;22.27;;;11.10;;
4122;SDS011;2075;51.062;6.920;2022-12-07T10:27:57;20.33;;;9.30;;
4122;SDS011;2075;51.062;6.920;2022-12-07T10:30:48;13.07;;;8.20;;
4122;SDS011;2075;51.062;6.920;2022-12-07T10:33:36;13.90;;;7.57;;
4122;SDS011;2075;51.062;6.920;2022-12-07T10:36:33;16.75;;;9.82;;
4122;SDS011;2075;51.062;6.920;2022-12-07T10:39:20;14.87;;;8.63;;
4122;SDS011;2075;51.062;6.920;2022-12-07T10:42:09;16.83;;;8.60;;
4122;SDS011;2075;51.062;6.920;2022-12-07T10:45:07;15.27;;;7.40;;
4122;SDS011;2075;51.062;6.920;2022-12-07T10:47:55;12.30;;;6.80;;
4122;SDS011;2075;51.062;6.920;2022-12-07T10:50:50;14.40;;;7.57;;
4122;SDS011;2075;51.062;6.920;2022-12-07T10:53:47;16.57;;;7.63;;
4122;SDS011;2075;51.062;6.920;2022-12-07T10:56:55;15.37;;;7.37;;
4122;SDS011;2075;51.062;6.920;2022-12-07T10:59:52;18.00;;;8.63;;
4122;SDS011;2075;51.062;6.920;2022-12-07T11:02:54;12.80;;;7.40;;
4122;SDS011;2075;51.062;6.920;2022-12-07T11:05:52;17.50;;;8.80;;
4122;SDS011;2075;51.062;6.920;2022-12-07T11:08:48;11.07;;;7.00;;
4122;SDS011;2075;51.062;6.920;2022-12-07T11:11:42;13.07;;;7.40;;
4122;SDS011;2075;51.062;6.920;2022-12-07T11:14:36;17.70;;;7.57;;
4122;SDS011;2075;51.062;6.920;2022-12-07T11:17:40;14.00;;;7.90;;
4122;SDS011;2075;51.062;6.920;2022-12-07T11:20:39;18.40;;;8.10;;
4122;SDS011;2075;51.062;6.920;2022-12-07T11:23:33;16.10;;;7.60;;
4122;SDS011;2075;51.062;6.920;2022-12-07T11:26:38;17.57;;;7.33;;
4122;SDS011;2075;51.062;6.920;2022-12-07T11:29:44;10.80;;;6.90;;
4122;SDS011;2075;51.062;6.920;2022-12-07T11:35:53;16.87;;;7.53;;
4122;SDS011;2075;51.062;6.920;2022-12-07T11:38:47;13.73;;;7.80;;
4122;SDS011;2075;51.062;6.920;2022-12-07T11:41:38;17.53;;;6.60;;
4122;SDS011;2075;51.062;6.920;2022-12-07T11:44:29;13.20;;;6.17;;
4122;SDS011;2075;51.062;6.920;2022-12-07T11:47:20;23.43;;;8.00;;
4122;SDS011;2075;51.062;6.920;2022-12-07T11:50:16;13.77;;;8.70;;
4122;SDS011;2075;51.062;6.920;2022-12-07T11:53:14;14.30;;;7.10;;
4122;SDS011;2075;51.062;6.920;2022-12-07T11:56:04;14.73;;;7.80;;
4122;SDS011;2075;51.062;6.920;2022-12-07T11:58:59;13.07;;;6.50;;
4122;SDS011;2075;51.062;6.920;2022-12-07T12:02:07;16.00;;;9.07;;
4122;SDS011;2075;51.062;6.920;2022-12-07T12:05:02;19.77;;;7.10;;
4122;SDS011;2075;51.062;6.920;2022-12-07T12:07:59;14.27;;;8.37;;
4122;SDS011;2075;51.062;6.920;2022-12-07T12:10:54;14.83;;;7.17;;
4122;SDS011;2075;51.062;6.920;2022-12-07T12:20:23;14.57;;;7.23;;
4122;SDS011;2075;51.062;6.920;2022-12-07T12:23:15;16.77;;;8.27;;
4122;SDS011;2075;51.062;6.920;2022-12-07T12:26:05;16.33;;;7.40;;
4122;SDS011;2075;51.062;6.920;2022-12-07T12:28:56;10.00;;;6.10;;
4122;SDS011;2075;51.062;6.920;2022-12-07T12:31:46;9.93;;;4.73;;
4122;SDS011;2075;51.062;6.920;2022-12-07T12:34:57;15.53;;;5.70;;
4122;SDS011;2075;51.062;6.920;2022-12-07T12:37:49;15.83;;;5.40;;
4122;SDS011;2075;51.062;6.920;2022-12-07T12:40:39;13.00;;;5.97;;
4122;SDS011;2075;51.062;6.920;2022-12-07T12:43:45;11.00;;;5.97;;
4122;SDS011;2075;51.062;6.920;2022-12-07T12:46:50;16.03;;;6.63;;
4122;SDS011;2075;51.062;6.920;2022-12-07T12:49:38;11.30;;;7.30;;
4122;SDS011;2075;51.062;6.920;2022-12-07T12:59:22;13.33;;;5.73;;
4122;SDS011;2075;51.062;6.920;2022-12-07T13:02:16;16.80;;;7.23;;
4122;SDS011;2075;51.062;6.920;2022-12-07T13:05:16;15.13;;;6.30;;
4122;SDS011;2075;51.062;6.920;2022-12-07T13:08:04;8.73;;;5.80;;
4122;SDS011;2075;51.062;6.920;2022-12-07T13:11:15;12.70;;;7.03;;
4122;SDS011;2075;51.062;6.920;2022-12-07T13:20:48;12.03;;;6.03;;
4122;SDS011;2075;51.062;6.920;2022-12-07T13:23:36;18.70;;;7.50;;
4122;SDS011;2075;51.062;6.920;2022-12-07T13:26:23;10.83;;;6.23;;
4122;SDS011;2075;51.062;6.920;2022-12-07T13:29:20;18.87;;;7.50;;
4122;SDS011;2075;51.062;6.920;2022-12-07T13:32:17;20.57;;;7.70;;
4122;SDS011;2075;51.062;6.920;2022-12-07T13:35:30;19.83;;;8.10;;
4122;SDS011;2075;51.062;6.920;2022-12-07T13:38:23;19.33;;;8.50;;
4122;SDS011;2075;51.062;6.920;2022-12-07T13:41:13;14.43;;;7.30;;
4122;SDS011;2075;51.062;6.920;2022-12-07T13:44:07;17.87;;;7.20;;
4122;SDS011;2075;51.062;6.920;2022-12-07T13:46:57;17.67;;;7.53;;
4122;SDS011;2075;51.062;6.920;2022-12-07T13:49:50;13.37;;;8.10;;
4122;SDS011;2075;51.062;6.920;2022-12-07T13:52:42;16.50;;;7.67;;
4122;SDS011;2075;51.062;6.920;2022-12-07T13:55:29;12.73;;;7.30;;
4122;SDS011;2075;51.062;6.920;2022-12-07T13:58:14;16.93;;;7.50;;
4122;SDS011;2075;51.062;6.920;2022-12-07T14:01:00;12.80;;;7.17;;
4122;SDS011;2075;51.062;6.920;2022-12-07T14:03:46;12.03;;;7.20;;
4122;SDS011;2075;51.062;6.920;2022-12-07T14:06:31;11.87;;;6.77;;
4122;SDS011;2075;51.062;6.920;2022-12-07T14:09:19;14.60;;;7.50;;
4122;SDS011;2075;51.062;6.920;2022-12-07T14:12:11;21.77;;;7.07;;
4122;SDS011;2075;51.062;6.920;2022-12-07T14:14:58;14.87;;;8.13;;
4122;SDS011;2075;51.062;6.920;2022-12-07T14:17:49;13.00;;;6.77;;
4122;SDS011;2075;51.062;6.920;2022-12-07T14:20:36;14.00;;;7.03;;
4122;SDS011;2075;51.062;6.920;2022-12-07T14:23:24;13.80;;;6.27;;
4122;SDS011;2075;51.062;6.920;2022-12-07T14:26:13;19.50;;;6.60;;
4122;SDS011;2075;51.062;6.920;2022-12-07T14:32:20;12.40;;;7.47;;
4122;SDS011;2075;51.062;6.920;2022-12-07T14:35:13;14.80;;;6.87;;
4122;SDS011;2075;51.062;6.920;2022-12-07T14:38:00;12.17;;;7.20;;
4122;SDS011;2075;51.062;6.920;2022-12-07T14:40:46;18.57;;;8.47;;
4122;SDS011;2075;51.062;6.920;2022-12-07T14:43:34;14.93;;;8.10;;
4122;SDS011;2075;51.062;6.920;2022-12-07T14:46:20;15.60;;;7.90;;
4122;SDS011;2075;51.062;6.920;2022-12-07T14:49:05;13.17;;;7.60;;
4122;SDS011;2075;51.062;6.920;2022-12-07T14:51:52;12.47;;;7.07;;
4122;SDS011;2075;51.062;6.920;2022-12-07T14:54:38;9.77;;;7.00;;
4122;SDS011;2075;51.062;6.920;2022-12-07T14:57:23;13.17;;;7.07;;
4122;SDS011;2075;51.062;6.920;2022-12-07T15:00:14;17.20;;;8.37;;
4122;SDS011;2075;51.062;6.920;2022-12-07T15:03:01;16.60;;;8.50;;
4122;SDS011;2075;51.062;6.920;2022-12-07T15:05:47;20.03;;;7.33;;
4122;SDS011;2075;51.062;6.920;2022-12-07T15:08:32;14.47;;;8.40;;
4122;SDS011;2075;51.062;6.920;2022-12-07T15:11:18;19.87;;;7.60;;
4122;SDS011;2075;51.062;6.920;2022-12-07T15:14:04;12.83;;;7.33;;
4122;SDS011;2075;51.062;6.920;2022-12-07T15:16:57;16.80;;;8.30;;
4122;SDS011;2075;51.062;6.920;2022-12-07T15:19:43;19.73;;;7.20;;
4122;SDS011;2075;51.062;6.920;2022-12-07T15:22:29;15.43;;;6.70;;
4122;SDS011;2075;51.062;6.920;2022-12-07T15:25:15;10.90;;;6.23;;
4122;SDS011;2075;51.062;6.920;2022-12-07T15:28:00;11.60;;;6.40;;
4122;SDS011;2075;51.062;6.920;2022-12-07T15:30:46;9.77;;;5.80;;
4122;SDS011;2075;51.062;6.920;2022-12-07T15:33:33;7.77;;;4.67;;
4122;SDS011;2075;51.062;6.920;2022-12-07T15:36:19;14.83;;;7.00;;
4122;SDS011;2075;51.062;6.920;2022-12-07T15:39:09;8.30;;;5.10;;
4122;SDS011;2075;51.062;6.920;2022-12-07T15:41:55;10.73;;;4.60;;
4122;SDS011;2075;51.062;6.920;2022-12-07T15:44:41;9.43;;;4.47;;
4122;SDS011;2075;51.062;6.920;2022-12-07T15:47:47;10.90;;;6.30;;
4122;SDS011;2075;51.062;6.920;2022-12-07T15:50:34;6.10;;;4.93;;
4122;SDS011;2075;51.062;6.920;2022-12-07T15:53:20;8.37;;;5.20;;
4122;SDS011;2075;51.062;6.920;2022-12-07T15:56:06;8.63;;;5.60;;
4122;SDS011;2075;51.062;6.920;2022-12-07T15:58:52;8.80;;;4.70;;
4122;SDS011;2075;51.062;6.920;2022-12-07T16:01:38;8.90;;;6.17;;
4122;SDS011;2075;51.062;6.920;2022-12-07T16:04:26;10.50;;;6.30;;
4122;SDS011;2075;51.062;6.920;2022-12-07T16:07:14;9.33;;;5.87;;
4122;SDS011;2075;51.062;6.920;2022-12-07T16:10:00;18.10;;;7.77;;
4122;SDS011;2075;51.062;6.920;2022-12-07T16:12:45;15.73;;;8.63;;
4122;SDS011;2075;51.062;6.920;2022-12-07T16:15:31;13.53;;;7.70;;
4122;SDS011;2075;51.062;6.920;2022-12-07T16:18:16;14.70;;;8.03;;
4122;SDS011;2075;51.062;6.920;2022-12-07T16:21:02;14.07;;;8.47;;
4122;SDS011;2075;51.062;6.920;2022-12-07T16:23:49;12.80;;;7.60;;
4122;SDS011;2075;51.062;6.920;2022-12-07T16:26:35;15.05;;;8.60;;
4122;SDS011;2075;51.062;6.920;2022-12-07T16:29:22;13.07;;;7.00;;
4122;SDS011;2075;51.062;6.920;2022-12-07T16:32:08;14.60;;;7.23;;
4122;SDS011;2075;51.062;6.920;2022-12-07T16:34:53;10.95;;;8.40;;
4122;SDS011;2075;51.062;6.920;2022-12-07T16:37:41;16.33;;;8.80;;
4122;SDS011;2075;51.062;6.920;2022-12-07T16:40:29;14.40;;;6.60;;
4122;SDS011;2075;51.062;6.920;2022-12-07T16:43:14;8.70;;;6.90;;
4122;SDS011;2075;51.062;6.920;2022-12-07T16:46:05;10.97;;;6.23;;
4122;SDS011;2075;51.062;6.920;2022-12-07T16:48:52;13.70;;;7.53;;
4122;SDS011;2075;51.062;6.920;2022-12-07T16:51:37;12.30;;;6.90;;
4122;SDS011;2075;51.062;6.920;2022-12-07T16:54:23;11.40;;;7.03;;
4122;SDS011;2075;51.062;6.920;2022-12-07T16:57:10;17.57;;;9.50;;
4122;SDS011;2075;51.062;6.920;2022-12-07T16:59:58;19.87;;;10.70;;
4122;SDS011;2075;51.062;6.920;2022-12-07T17:02:43;15.37;;;9.30;;
4122;SDS011;2075;51.062;6.920;2022-12-07T17:05:31;13.07;;;8.10;;
4122;SDS011;2075;51.062;6.920;2022-12-07T17:08:16;26.07;;;10.10;;
4122;SDS011;2075;51.062;6.920;2022-12-07T17:11:02;17.47;;;9.50;;
4122;SDS011;2075;51.062;6.920;2022-12-07T17:13:59;22.40;;;10.83;;
4122;SDS011;2075;51.062;6.920;2022-12-07T17:17:03;14.80;;;9.40;;
4122;SDS011;2075;51.062;6.920;2022-12-07T17:19:49;18.30;;;9.47;;
4122;SDS011;2075;51.062;6.920;2022-12-07T17:22:34;14.90;;;9.47;;
4122;SDS011;2075;51.062;6.920;2022-12-07T17:25:21;14.80;;;8.97;;
4122;SDS011;2075;51.062;6.920;2022-12-07T17:28:06;14.67;;;9.57;;
4122;SDS011;2075;51.062;6.920;2022-12-07T17:30:56;16.80;;;10.27;;